sensor_id;sensor_type;location;lat;lon;timestamp;pressure;altitude;pressure_sealevel;temperature;humidity
61408;BME280;47274;43.054;25.146;2023-01-28T00:01:20;94918.66;;;-3.17;100.00
61408;BME280;47274;43.054;25.146;2023-01-28T00:03:49;94931.03;;;-3.14;100.00
61408;BME280;47274;43.054;25.146;2023-01-28T00:06:16;94928.75;;;-3.19;100.00
61408;BME280;47274;43.054;25.146;2023-01-28T00:08:47;94967.50;;;-2.91;100.00
61408;BME280;47274;43.054;25.146;2023-01-28T00:11:13;94961.00;;;-2.95;100.00
61408;BME280;47274;43.054;25.146;2023-01-28T00:13:40;94960.06;;;-2.93;100.00
61408;BME280;47274;43.054;25.146;2023-01-28T00:16:07;94930.13;;;-3.13;100.00
61408;BME280;47274;43.054;25.146;2023-01-28T00:18:34;94975.66;;;-2.88;100.00
61408;BME280;47274;43.054;25.146;2023-01-28T00:21:03;94968.06;;;-2.86;100.00
61408;BME280;47274;43.054;25.146;2023-01-28T00:23:31;94984.84;;;-2.87;100.00
61408;BME280;47274;43.054;25.146;2023-01-28T00:26:00;94977.38;;;-2.88;100.00
61408;BME280;47274;43.054;25.146;2023-01-28T00:28:26;94940.25;;;-3.15;100.00
61408;BME280;47274;43.054;25.146;2023-01-28T00:30:53;94936.84;;;-3.14;100.00
61408;BME280;47274;43.054;25.146;2023-01-28T00:33:21;94975.91;;;-2.92;100.00
61408;BME280;47274;43.054;25.146;2023-01-28T00:35:59;94973.41;;;-2.92;100.00
61408;BME280;47274;43.054;25.146;2023-01-28T00:38:26;94981.44;;;-2.86;100.00
61408;BME280;47274;43.054;25.146;2023-01-28T00:40:52;94950.13;;;-3.12;100.00
61408;BME280;47274;43.054;25.146;2023-01-28T00:43:18;94981.75;;;-2.92;100.00
61408;BME280;47274;43.054;25.146;2023-01-28T00:45:44;94990.81;;;-2.89;100.00
61408;BME280;47274;43.054;25.146;2023-01-28T00:48:10;94989.22;;;-2.90;100.00
61408;BME280;47274;43.054;25.146;2023-01-28T00:50:37;94959.06;;;-3.06;100.00
61408;BME280;47274;43.054;25.146;2023-01-28T00:53:04;94985.88;;;-2.91;100.00
61408;BME280;47274;43.054;25.146;2023-01-28T00:55:30;94996.59;;;-2.87;100.00
61408;BME280;47274;43.054;25.146;2023-01-28T00:57:56;94993.09;;;-2.84;100.00
61408;BME280;47274;43.054;25.146;2023-01-28T01:00:22;94959.16;;;-3.07;100.00
61408;BME280;47274;43.054;25.146;2023-01-28T01:02:52;94994.88;;;-2.87;100.00
61408;BME280;47274;43.054;25.146;2023-01-28T01:05:18;94989.06;;;-2.87;100.00
61408;BME280;47274;43.054;25.146;2023-01-28T01:07:43;94995.69;;;-2.86;100.00
61408;BME280;47274;43.054;25.146;2023-01-28T01:10:13;94973.06;;;-3.02;100.00
61408;BME280;47274;43.054;25.146;2023-01-28T01:12:40;94984.34;;;-2.93;100.00
61408;BME280;47274;43.054;25.146;2023-01-28T01:15:07;94994.22;;;-2.90;100.00
61408;BME280;47274;43.054;25.146;2023-01-28T01:17:39;94989.22;;;-2.90;100.00
61408;BME280;47274;43.054;25.146;2023-01-28T01:20:10;94964.97;;;-3.07;100.00
61408;BME280;47274;43.054;25.146;2023-01-28T01:22:37;94999.91;;;-2.87;100.00
61408;BME280;47274;43.054;25.146;2023-01-28T01:25:04;95000.88;;;-2.89;100.00
61408;BME280;47274;43.054;25.146;2023-01-28T01:27:31;95004.19;;;-2.89;100.00
61408;BME280;47274;43.054;25.146;2023-01-28T01:29:57;94959.75;;;-3.20;100.00
61408;BME280;47274;43.054;25.146;2023-01-28T01:32:24;94970.34;;;-3.15;100.00
61408;BME280;47274;43.054;25.146;2023-01-28T01:34:53;95011.47;;;-2.84;100.00
61408;BME280;47274;43.054;25.146;2023-01-28T01:37:19;94997.63;;;-2.91;100.00
61408;BME280;47274;43.054;25.146;2023-01-28T01:39:45;95006.84;;;-2.92;100.00
61408;BME280;47274;43.054;25.146;2023-01-28T01:42:12;94977.72;;;-3.12;100.00
61408;BME280;47274;43.054;25.146;2023-01-28T01:44:55;95023.53;;;-2.91;100.00
61408;BME280;47274;43.054;25.146;2023-01-28T01:50:23;95021.84;;;-2.90;100.00
61408;BME280;47274;43.054;25.146;2023-01-28T01:52:55;95015.53;;;-2.97;100.00
61408;BME280;47274;43.054;25.146;2023-01-28T01:55:23;95011.97;;;-2.93;100.00
61408;BME280;47274;43.054;25.146;2023-01-28T01:57:54;95020.69;;;-3.00;100.00
61408;BME280;47274;43.054;25.146;2023-01-28T02:00:22;95015.88;;;-3.05;100.00
61408;BME280;47274;43.054;25.146;2023-01-28T02:02:49;95022.44;;;-3.02;100.00
61408;BME280;47274;43.054;25.146;2023-01-28T02:05:18;94995.03;;;-3.23;100.00
61408;BME280;47274;43.054;25.146;2023-01-28T02:07:48;94981.16;;;-3.30;100.00
61408;BME280;47274;43.054;25.146;2023-01-28T02:10:16;95017.69;;;-3.07;100.00
61408;BME280;47274;43.054;25.146;2023-01-28T02:12:46;95021.13;;;-3.10;100.00
61408;BME280;47274;43.054;25.146;2023-01-28T02:15:17;95024.41;;;-3.07;100.00
61408;BME280;47274;43.054;25.146;2023-01-28T02:17:45;95023.50;;;-3.06;100.00
61408;BME280;47274;43.054;25.146;2023-01-28T02:20:19;95030.59;;;-2.97;100.00
61408;BME280;47274;43.054;25.146;2023-01-28T02:25:57;95029.91;;;-3.01;100.00
61408;BME280;47274;43.054;25.146;2023-01-28T02:28:35;95020.34;;;-3.10;100.00
61408;BME280;47274;43.054;25.146;2023-01-28T02:39:25;95022.91;;;-3.12;100.00
61408;BME280;47274;43.054;25.146;2023-01-28T02:42:09;95033.84;;;-3.13;100.00
61408;BME280;47274;43.054;25.146;2023-01-28T02:44:38;95036.44;;;-3.14;100.00
61408;BME280;47274;43.054;25.146;2023-01-28T02:47:11;95007.34;;;-3.36;100.00
61408;BME280;47274;43.054;25.146;2023-01-28T02:49:58;95004.13;;;-3.38;100.00
61408;BME280;47274;43.054;25.146;2023-01-28T02:55:38;95040.31;;;-3.08;100.00
61408;BME280;47274;43.054;25.146;2023-01-28T03:01:43;95003.31;;;-3.38;100.00
61408;BME280;47274;43.054;25.146;2023-01-28T03:04:00;95060.25;;;-3.05;100.00
61408;BME280;47274;43.054;25.146;2023-01-28T03:06:38;95051.81;;;-3.04;100.00
61408;BME280;47274;43.054;25.146;2023-01-28T03:09:09;95026.53;;;-3.17;100.00
61408;BME280;47274;43.054;25.146;2023-01-28T03:11:59;95049.31;;;-3.04;100.00
61408;BME280;47274;43.054;25.146;2023-01-28T03:14:49;95021.16;;;-3.27;100.00
61408;BME280;47274;43.054;25.146;2023-01-28T03:17:44;95046.25;;;-3.10;100.00
61408;BME280;47274;43.054;25.146;2023-01-28T03:24:05;95058.19;;;-2.97;100.00
61408;BME280;47274;43.054;25.146;2023-01-28T03:30:04;95058.69;;;-3.08;100.00
61408;BME280;47274;43.054;25.146;2023-01-28T03:32:52;95058.88;;;-3.11;100.00
61408;BME280;47274;43.054;25.146;2023-01-28T03:35:37;95019.19;;;-3.38;100.00
61408;BME280;47274;43.054;25.146;2023-01-28T03:38:22;95065.28;;;-3.05;100.00
61408;BME280;47274;43.054;25.146;2023-01-28T03:40:56;95076.22;;;-3.06;100.00
61408;BME280;47274;43.054;25.146;2023-01-28T03:43:22;95065.41;;;-3.08;100.00
61408;BME280;47274;43.054;25.146;2023-01-28T03:45:49;95063.16;;;-3.13;100.00
61408;BME280;47274;43.054;25.146;2023-01-28T03:48:19;95070.69;;;-3.13;100.00
61408;BME280;47274;43.054;25.146;2023-01-28T03:50:46;95076.50;;;-3.13;100.00
61408;BME280;47274;43.054;25.146;2023-01-28T03:53:14;95064.84;;;-3.14;100.00
61408;BME280;47274;43.054;25.146;2023-01-28T03:55:46;95081.38;;;-3.10;100.00
61408;BME280;47274;43.054;25.146;2023-01-28T03:58:13;95039.78;;;-3.31;100.00
61408;BME280;47274;43.054;25.146;2023-01-28T04:00:40;95045.97;;;-3.38;100.00
61408;BME280;47274;43.054;25.146;2023-01-28T04:03:18;95026.09;;;-3.43;100.00
61408;BME280;47274;43.054;25.146;2023-01-28T04:06:03;95049.00;;;-3.31;100.00
61408;BME280;47274;43.054;25.146;2023-01-28T04:08:50;95043.22;;;-3.34;100.00
61408;BME280;47274;43.054;25.146;2023-01-28T04:11:29;95095.53;;;-3.08;100.00
61408;BME280;47274;43.054;25.146;2023-01-28T04:13:57;95053.63;;;-3.41;100.00
61408;BME280;47274;43.054;25.146;2023-01-28T04:16:24;95094.97;;;-3.14;100.00
61408;BME280;47274;43.054;25.146;2023-01-28T04:18:50;95093.50;;;-3.18;100.00
61408;BME280;47274;43.054;25.146;2023-01-28T04:21:16;95061.16;;;-3.41;100.00
61408;BME280;47274;43.054;25.146;2023-01-28T04:23:43;95110.22;;;-3.18;100.00
61408;BME280;47274;43.054;25.146;2023-01-28T04:26:11;95074.72;;;-3.45;100.00
61408;BME280;47274;43.054;25.146;2023-01-28T04:28:37;95112.00;;;-3.20;100.00
61408;BME280;47274;43.054;25.146;2023-01-28T04:31:04;95120.19;;;-3.17;100.00
61408;BME280;47274;43.054;25.146;2023-01-28T04:33:49;95103.16;;;-3.27;100.00
61408;BME280;47274;43.054;25.146;2023-01-28T04:36:36;95084.41;;;-3.38;100.00
61408;BME280;47274;43.054;25.146;2023-01-28T04:39:26;95125.28;;;-3.18;100.00
61408;BME280;47274;43.054;25.146;2023-01-28T04:42:14;95091.94;;;-3.38;100.00
61408;BME280;47274;43.054;25.146;2023-01-28T04:44:58;95132.75;;;-3.17;100.00
61408;BME280;47274;43.054;25.146;2023-01-28T04:47:37;95134.50;;;-3.19;100.00
61408;BME280;47274;43.054;25.146;2023-01-28T04:50:18;95090.06;;;-3.51;100.00
61408;BME280;47274;43.054;25.146;2023-01-28T04:53:04;95144.03;;;-3.25;100.00
61408;BME280;47274;43.054;25.146;2023-01-28T04:55:46;95139.81;;;-3.25;100.00
61408;BME280;47274;43.054;25.146;2023-01-28T04:58:13;95149.56;;;-3.19;100.00
61408;BME280;47274;43.054;25.146;2023-01-28T05:00:43;95151.78;;;-3.13;100.00
61408;BME280;47274;43.054;25.146;2023-01-28T05:03:10;95135.53;;;-3.23;100.00
61408;BME280;47274;43.054;25.146;2023-01-28T05:05:36;95113.69;;;-3.38;100.00
61408;BME280;47274;43.054;25.146;2023-01-28T05:08:16;95142.94;;;-3.20;100.00
61408;BME280;47274;43.054;25.146;2023-01-28T05:10:44;95153.50;;;-3.13;100.00
61408;BME280;47274;43.054;25.146;2023-01-28T05:13:10;95117.97;;;-3.40;100.00
61408;BME280;47274;43.054;25.146;2023-01-28T05:15:37;95144.53;;;-3.19;100.00
61408;BME280;47274;43.054;25.146;2023-01-28T05:18:03;95147.00;;;-3.17;100.00
61408;BME280;47274;43.054;25.146;2023-01-28T05:20:34;95148.75;;;-3.19;100.00
61408;BME280;47274;43.054;25.146;2023-01-28T05:23:02;95164.94;;;-3.07;100.00
61408;BME280;47274;43.054;25.146;2023-01-28T05:25:38;95156.28;;;-3.19;100.00
61408;BME280;47274;43.054;25.146;2023-01-28T05:28:04;95113.09;;;-3.43;100.00
61408;BME280;47274;43.054;25.146;2023-01-28T05:30:31;95163.53;;;-3.13;100.00
61408;BME280;47274;43.054;25.146;2023-01-28T05:32:57;95138.34;;;-3.29;100.00
61408;BME280;47274;43.054;25.146;2023-01-28T05:35:24;95169.31;;;-3.11;100.00
61408;BME280;47274;43.054;25.146;2023-01-28T05:37:50;95176.50;;;-3.05;100.00
61408;BME280;47274;43.054;25.146;2023-01-28T05:40:17;95165.94;;;-3.12;100.00
61408;BME280;47274;43.054;25.146;2023-01-28T05:42:43;95177.84;;;-3.15;100.00
61408;BME280;47274;43.054;25.146;2023-01-28T05:45:23;95148.66;;;-3.35;100.00
61408;BME280;47274;43.054;25.146;2023-01-28T05:48:05;95186.50;;;-3.03;100.00
61408;BME280;47274;43.054;25.146;2023-01-28T05:50:55;95199.06;;;-3.03;100.00
61408;BME280;47274;43.054;25.146;2023-01-28T05:53:31;95155.22;;;-3.33;100.00
61408;BME280;47274;43.054;25.146;2023-01-28T05:55:59;95190.84;;;-3.07;100.00
61408;BME280;47274;43.054;25.146;2023-01-28T05:58:26;95199.84;;;-3.03;100.00
61408;BME280;47274;43.054;25.146;2023-01-28T06:00:55;95188.84;;;-3.18;100.00
61408;BME280;47274;43.054;25.146;2023-01-28T06:03:27;95198.72;;;-3.15;100.00
61408;BME280;47274;43.054;25.146;2023-01-28T06:05:54;95212.78;;;-3.11;100.00
61408;BME280;47274;43.054;25.146;2023-01-28T06:08:20;95217.50;;;-3.04;100.00
61408;BME280;47274;43.054;25.146;2023-01-28T06:10:46;95208.34;;;-3.05;100.00
61408;BME280;47274;43.054;25.146;2023-01-28T06:13:38;95218.09;;;-2.99;100.00
61408;BME280;47274;43.054;25.146;2023-01-28T06:16:25;95174.34;;;-3.30;100.00
61408;BME280;47274;43.054;25.146;2023-01-28T06:19:09;95212.31;;;-3.01;100.00
61408;BME280;47274;43.054;25.146;2023-01-28T06:21:35;95198.31;;;-3.05;100.00
61408;BME280;47274;43.054;25.146;2023-01-28T06:24:01;95188.63;;;-3.13;100.00
61408;BME280;47274;43.054;25.146;2023-01-28T06:26:29;95232.28;;;-2.81;100.00
61408;BME280;47274;43.054;25.146;2023-01-28T06:28:55;95236.72;;;-2.69;100.00
61408;BME280;47274;43.054;25.146;2023-01-28T06:31:21;95185.75;;;-3.05;100.00
61408;BME280;47274;43.054;25.146;2023-01-28T06:33:47;95170.78;;;-3.07;100.00
61408;BME280;47274;43.054;25.146;2023-01-28T06:36:13;95228.91;;;-2.63;100.00
61408;BME280;47274;43.054;25.146;2023-01-28T06:38:40;95238.34;;;-2.50;100.00
61408;BME280;47274;43.054;25.146;2023-01-28T06:41:06;95239.75;;;-2.45;100.00
61408;BME280;47274;43.054;25.146;2023-01-28T06:43:32;95230.47;;;-2.43;100.00
61408;BME280;47274;43.054;25.146;2023-01-28T06:46:00;95243.59;;;-2.38;100.00
61408;BME280;47274;43.054;25.146;2023-01-28T06:48:28;95220.63;;;-2.47;100.00
61408;BME280;47274;43.054;25.146;2023-01-28T06:50:54;95245.28;;;-2.21;100.00
61408;BME280;47274;43.054;25.146;2023-01-28T06:53:20;95219.78;;;-2.30;100.00
61408;BME280;47274;43.054;25.146;2023-01-28T06:55:46;95233.94;;;-2.12;100.00
61408;BME280;47274;43.054;25.146;2023-01-28T06:58:14;95256.72;;;-1.98;100.00
61408;BME280;47274;43.054;25.146;2023-01-28T07:00:40;95269.78;;;-1.91;100.00
61408;BME280;47274;43.054;25.146;2023-01-28T07:03:06;95218.19;;;-2.16;100.00
61408;BME280;47274;43.054;25.146;2023-01-28T07:05:33;95274.84;;;-1.75;100.00
61408;BME280;47274;43.054;25.146;2023-01-28T07:07:58;95278.16;;;-1.75;100.00
61408;BME280;47274;43.054;25.146;2023-01-28T07:10:27;95266.88;;;-1.83;100.00
61408;BME280;47274;43.054;25.146;2023-01-28T07:12:53;95241.84;;;-2.02;100.00
61408;BME280;47274;43.054;25.146;2023-01-28T07:15:19;95255.28;;;-1.86;100.00
61408;BME280;47274;43.054;25.146;2023-01-28T07:17:46;95274.03;;;-1.76;100.00
61408;BME280;47274;43.054;25.146;2023-01-28T07:20:13;95272.84;;;-1.69;100.00
61408;BME280;47274;43.054;25.146;2023-01-28T07:22:41;95270.25;;;-1.67;100.00
61408;BME280;47274;43.054;25.146;2023-01-28T07:25:09;95264.56;;;-1.71;100.00
61408;BME280;47274;43.054;25.146;2023-01-28T07:27:35;95279.56;;;-1.69;100.00
61408;BME280;47274;43.054;25.146;2023-01-28T07:30:03;95274.69;;;-1.72;100.00
61408;BME280;47274;43.054;25.146;2023-01-28T07:32:29;95278.25;;;-1.76;100.00
61408;BME280;47274;43.054;25.146;2023-01-28T07:34:55;95277.59;;;-1.80;100.00
61408;BME280;47274;43.054;25.146;2023-01-28T07:37:21;95283.09;;;-1.89;100.00
61408;BME280;47274;43.054;25.146;2023-01-28T07:39:47;95279.75;;;-1.89;100.00
61408;BME280;47274;43.054;25.146;2023-01-28T07:42:13;95286.25;;;-1.85;100.00
61408;BME280;47274;43.054;25.146;2023-01-28T07:44:48;95271.72;;;-1.96;100.00
61408;BME280;47274;43.054;25.146;2023-01-28T07:47:15;95274.72;;;-1.89;100.00
61408;BME280;47274;43.054;25.146;2023-01-28T07:49:42;95257.59;;;-1.99;100.00
61408;BME280;47274;43.054;25.146;2023-01-28T07:52:08;95288.56;;;-1.81;100.00
61408;BME280;47274;43.054;25.146;2023-01-28T07:54:35;95287.41;;;-1.75;100.00
61408;BME280;47274;43.054;25.146;2023-01-28T07:57:07;95292.97;;;-1.69;100.00
61408;BME280;47274;43.054;25.146;2023-01-28T07:59:37;95293.59;;;-1.65;100.00
61408;BME280;47274;43.054;25.146;2023-01-28T08:02:03;95298.59;;;-1.63;100.00
61408;BME280;47274;43.054;25.146;2023-01-28T08:04:30;95259.03;;;-1.77;100.00
61408;BME280;47274;43.054;25.146;2023-01-28T08:06:56;95286.91;;;-1.49;100.00
61408;BME280;47274;43.054;25.146;2023-01-28T08:09:22;95294.50;;;-1.33;100.00
61408;BME280;47274;43.054;25.146;2023-01-28T08:11:49;95299.28;;;-1.12;100.00
61408;BME280;47274;43.054;25.146;2023-01-28T08:14:15;95297.00;;;-1.01;100.00
61408;BME280;47274;43.054;25.146;2023-01-28T08:16:42;95309.75;;;-0.88;100.00
61408;BME280;47274;43.054;25.146;2023-01-28T08:19:09;95301.78;;;-0.97;100.00
61408;BME280;47274;43.054;25.146;2023-01-28T08:21:37;95290.84;;;-0.96;100.00
61408;BME280;47274;43.054;25.146;2023-01-28T08:24:03;95311.06;;;-0.81;100.00
61408;BME280;47274;43.054;25.146;2023-01-28T08:26:31;95312.69;;;-0.80;100.00
61408;BME280;47274;43.054;25.146;2023-01-28T08:28:57;95270.59;;;-1.10;100.00
61408;BME280;47274;43.054;25.146;2023-01-28T08:31:23;95294.81;;;-0.91;100.00
61408;BME280;47274;43.054;25.146;2023-01-28T08:33:49;95270.59;;;-1.10;100.00
61408;BME280;47274;43.054;25.146;2023-01-28T08:36:15;95314.13;;;-0.76;100.00
61408;BME280;47274;43.054;25.146;2023-01-28T08:38:42;95298.28;;;-0.78;100.00
61408;BME280;47274;43.054;25.146;2023-01-28T08:41:09;95312.84;;;-0.67;100.00
61408;BME280;47274;43.054;25.146;2023-01-28T08:43:40;95310.53;;;-0.56;100.00
61408;BME280;47274;43.054;25.146;2023-01-28T08:46:07;95316.84;;;-0.49;99.53
61408;BME280;47274;43.054;25.146;2023-01-28T08:48:36;95312.28;;;-0.42;98.93
61408;BME280;47274;43.054;25.146;2023-01-28T08:51:05;95302.22;;;-0.42;99.39
61408;BME280;47274;43.054;25.146;2023-01-28T08:53:34;95301.44;;;-0.29;99.38
61408;BME280;47274;43.054;25.146;2023-01-28T08:56:00;95304.91;;;-0.15;98.36
61408;BME280;47274;43.054;25.146;2023-01-28T08:58:26;95307.06;;;-0.09;97.09
61408;BME280;47274;43.054;25.146;2023-01-28T09:00:53;95321.91;;;-0.19;94.53
61408;BME280;47274;43.054;25.146;2023-01-28T09:03:19;95315.84;;;-0.31;95.60
61408;BME280;47274;43.054;25.146;2023-01-28T09:05:47;95315.28;;;-0.36;95.63
61408;BME280;47274;43.054;25.146;2023-01-28T09:08:15;95315.66;;;-0.28;96.24
61408;BME280;47274;43.054;25.146;2023-01-28T09:10:41;95271.47;;;-0.49;95.91
61408;BME280;47274;43.054;25.146;2023-01-28T09:13:13;95303.69;;;-0.24;94.92
61408;BME280;47274;43.054;25.146;2023-01-28T09:15:44;95320.47;;;-0.23;94.58
61408;BME280;47274;43.054;25.146;2023-01-28T09:18:10;95307.28;;;-0.28;95.04
61408;BME280;47274;43.054;25.146;2023-01-28T09:20:37;95300.00;;;-0.33;93.68
61408;BME280;47274;43.054;25.146;2023-01-28T09:23:03;95285.25;;;-0.55;93.00
61408;BME280;47274;43.054;25.146;2023-01-28T09:25:29;95304.91;;;-0.45;93.91
61408;BME280;47274;43.054;25.146;2023-01-28T09:27:57;95306.81;;;-0.65;94.45
61408;BME280;47274;43.054;25.146;2023-01-28T09:30:24;95304.03;;;-0.76;97.27
61408;BME280;47274;43.054;25.146;2023-01-28T09:32:51;95261.84;;;-1.18;98.45
61408;BME280;47274;43.054;25.146;2023-01-28T09:35:18;95307.63;;;-0.80;100.00
61408;BME280;47274;43.054;25.146;2023-01-28T09:37:45;95302.59;;;-0.80;100.00
61408;BME280;47274;43.054;25.146;2023-01-28T09:40:32;95305.75;;;-0.92;100.00
61408;BME280;47274;43.054;25.146;2023-01-28T09:45:39;95311.72;;;-1.09;100.00
61408;BME280;47274;43.054;25.146;2023-01-28T09:48:15;95303.25;;;-1.08;100.00
61408;BME280;47274;43.054;25.146;2023-01-28T09:50:58;95297.75;;;-0.99;100.00
61408;BME280;47274;43.054;25.146;2023-01-28T09:56:04;95301.16;;;-1.16;100.00
61408;BME280;47274;43.054;25.146;2023-01-28T09:58:32;95312.34;;;-0.90;100.00
61408;BME280;47274;43.054;25.146;2023-01-28T10:06:33;95311.63;;;-0.30;99.98
61408;BME280;47274;43.054;25.146;2023-01-28T10:12:30;95315.16;;;-0.18;96.15
61408;BME280;47274;43.054;25.146;2023-01-28T10:17:48;95280.47;;;-0.29;96.22
61408;BME280;47274;43.054;25.146;2023-01-28T10:20:27;95288.38;;;-0.21;96.16
61408;BME280;47274;43.054;25.146;2023-01-28T10:23:11;95318.00;;;-0.25;97.08
61408;BME280;47274;43.054;25.146;2023-01-28T10:25:41;95309.63;;;-0.25;96.62
61408;BME280;47274;43.054;25.146;2023-01-28T10:28:17;95305.81;;;-0.02;97.63
61408;BME280;47274;43.054;25.146;2023-01-28T10:30:47;95319.38;;;0.26;97.44
61408;BME280;47274;43.054;25.146;2023-01-28T10:33:30;95316.75;;;0.27;95.97
61408;BME280;47274;43.054;25.146;2023-01-28T10:36:00;95302.91;;;0.34;96.24
61408;BME280;47274;43.054;25.146;2023-01-28T10:38:26;95289.09;;;0.26;94.26
61408;BME280;47274;43.054;25.146;2023-01-28T10:41:03;95302.63;;;0.53;94.94
61408;BME280;47274;43.054;25.146;2023-01-28T10:43:34;95299.56;;;0.48;94.53
61408;BME280;47274;43.054;25.146;2023-01-28T10:46:28;95303.34;;;0.69;94.28
61408;BME280;47274;43.054;25.146;2023-01-28T10:49:10;95309.28;;;0.68;94.39
61408;BME280;47274;43.054;25.146;2023-01-28T10:51:44;95298.28;;;0.69;93.86
61408;BME280;47274;43.054;25.146;2023-01-28T10:54:27;95305.03;;;0.83;94.25
61408;BME280;47274;43.054;25.146;2023-01-28T10:57:08;95295.63;;;0.85;93.50
61408;BME280;47274;43.054;25.146;2023-01-28T10:59:39;95269.78;;;0.67;92.87
61408;BME280;47274;43.054;25.146;2023-01-28T11:02:36;95314.81;;;1.02;91.88
61408;BME280;47274;43.054;25.146;2023-01-28T11:05:19;95315.91;;;0.98;90.65
61408;BME280;47274;43.054;25.146;2023-01-28T11:07:47;95303.13;;;0.87;91.64
61408;BME280;47274;43.054;25.146;2023-01-28T11:10:25;95315.41;;;0.93;91.21
61408;BME280;47274;43.054;25.146;2023-01-28T11:12:58;95323.59;;;0.97;91.92
61408;BME280;47274;43.054;25.146;2023-01-28T11:15:25;95314.16;;;0.86;91.44
61408;BME280;47274;43.054;25.146;2023-01-28T11:18:01;95278.34;;;0.79;93.07
61408;BME280;47274;43.054;25.146;2023-01-28T11:20:37;95306.91;;;0.94;91.51
61408;BME280;47274;43.054;25.146;2023-01-28T11:23:27;95285.25;;;0.90;91.67
61408;BME280;47274;43.054;25.146;2023-01-28T11:26:17;95317.97;;;1.06;92.34
61408;BME280;47274;43.054;25.146;2023-01-28T11:28:44;95310.63;;;1.15;92.54
61408;BME280;47274;43.054;25.146;2023-01-28T11:31:14;95243.97;;;0.77;91.07
61408;BME280;47274;43.054;25.146;2023-01-28T11:34:03;95319.56;;;1.21;91.70
61408;BME280;47274;43.054;25.146;2023-01-28T11:36:32;95306.59;;;1.13;91.45
61408;BME280;47274;43.054;25.146;2023-01-28T11:39:19;95304.44;;;1.07;91.07
61408;BME280;47274;43.054;25.146;2023-01-28T11:41:46;95311.91;;;1.08;92.54
61408;BME280;47274;43.054;25.146;2023-01-28T11:44:26;95274.91;;;0.80;92.56
61408;BME280;47274;43.054;25.146;2023-01-28T11:53:20;95312.13;;;0.91;93.27
61408;BME280;47274;43.054;25.146;2023-01-28T11:56:11;95312.28;;;1.02;93.08
61408;BME280;47274;43.054;25.146;2023-01-28T12:04:52;95310.53;;;0.90;93.51
61408;BME280;47274;43.054;25.146;2023-01-28T12:10:01;95300.97;;;0.81;93.78
61408;BME280;47274;43.054;25.146;2023-01-28T12:15:35;95312.25;;;0.75;94.84
61408;BME280;47274;43.054;25.146;2023-01-28T12:26:47;95315.34;;;0.52;96.63
61408;BME280;47274;43.054;25.146;2023-01-28T12:38:02;95311.19;;;0.36;97.77
61408;BME280;47274;43.054;25.146;2023-01-28T12:41:29;95315.53;;;0.34;98.70
61408;BME280;47274;43.054;25.146;2023-01-28T12:49:27;95320.75;;;0.45;98.90
61408;BME280;47274;43.054;25.146;2023-01-28T12:55:15;95282.78;;;0.33;99.59
61408;BME280;47274;43.054;25.146;2023-01-28T12:57:46;95291.44;;;0.29;98.79
61408;BME280;47274;43.054;25.146;2023-01-28T13:00:40;95323.53;;;0.41;99.17
61408;BME280;47274;43.054;25.146;2023-01-28T13:06:22;95325.06;;;0.29;100.00
61408;BME280;47274;43.054;25.146;2023-01-28T13:08:50;95331.00;;;0.28;100.00
61408;BME280;47274;43.054;25.146;2023-01-28T13:11:28;95332.34;;;0.19;100.00
61408;BME280;47274;43.054;25.146;2023-01-28T13:13:56;95338.91;;;0.08;100.00
61408;BME280;47274;43.054;25.146;2023-01-28T13:16:27;95345.03;;;0.04;100.00
61408;BME280;47274;43.054;25.146;2023-01-28T13:19:22;95298.09;;;-0.29;100.00
61408;BME280;47274;43.054;25.146;2023-01-28T13:21:49;95309.56;;;-0.23;100.00
61408;BME280;47274;43.054;25.146;2023-01-28T13:26:43;95336.06;;;-0.16;100.00
61408;BME280;47274;43.054;25.146;2023-01-28T13:31:41;95305.69;;;-0.45;100.00
61408;BME280;47274;43.054;25.146;2023-01-28T13:34:36;95356.06;;;-0.13;100.00
61408;BME280;47274;43.054;25.146;2023-01-28T13:39:57;95365.41;;;-0.15;100.00
61408;BME280;47274;43.054;25.146;2023-01-28T13:42:29;95362.16;;;-0.17;100.00
61408;BME280;47274;43.054;25.146;2023-01-28T13:45:28;95306.41;;;-0.57;100.00
61408;BME280;47274;43.054;25.146;2023-01-28T13:48:06;95360.22;;;-0.28;100.00
61408;BME280;47274;43.054;25.146;2023-01-28T13:50:42;95361.88;;;-0.27;100.00
61408;BME280;47274;43.054;25.146;2023-01-28T13:53:35;95361.63;;;-0.22;100.00
61408;BME280;47274;43.054;25.146;2023-01-28T13:56:14;95354.00;;;-0.37;100.00
61408;BME280;47274;43.054;25.146;2023-01-28T13:58:56;95371.06;;;-0.42;100.00
61408;BME280;47274;43.054;25.146;2023-01-28T14:16:04;95385.50;;;-0.44;100.00
61408;BME280;47274;43.054;25.146;2023-01-28T14:18:42;95379.16;;;-0.51;100.00
61408;BME280;47274;43.054;25.146;2023-01-28T14:21:16;95350.84;;;-0.72;100.00
61408;BME280;47274;43.054;25.146;2023-01-28T14:23:49;95377.38;;;-0.65;100.00
61408;BME280;47274;43.054;25.146;2023-01-28T14:31:44;95384.66;;;-0.76;100.00
61408;BME280;47274;43.054;25.146;2023-01-28T14:34:34;95398.81;;;-0.74;100.00
61408;BME280;47274;43.054;25.146;2023-01-28T14:37:11;95396.56;;;-0.78;100.00
61408;BME280;47274;43.054;25.146;2023-01-28T14:39:47;95356.00;;;-1.05;100.00
61408;BME280;47274;43.054;25.146;2023-01-28T14:42:35;95347.28;;;-1.15;100.00
61408;BME280;47274;43.054;25.146;2023-01-28T14:56:56;95412.59;;;-0.97;100.00
61408;BME280;47274;43.054;25.146;2023-01-28T15:02:21;95395.53;;;-1.07;100.00
61408;BME280;47274;43.054;25.146;2023-01-28T15:04:49;95369.00;;;-1.30;100.00
61408;BME280;47274;43.054;25.146;2023-01-28T15:07:25;95370.97;;;-1.35;100.00
61408;BME280;47274;43.054;25.146;2023-01-28T15:10:00;95414.97;;;-1.09;100.00
61408;BME280;47274;43.054;25.146;2023-01-28T15:12:32;95413.97;;;-1.23;100.00
61408;BME280;47274;43.054;25.146;2023-01-28T15:15:10;95375.78;;;-1.48;100.00
61408;BME280;47274;43.054;25.146;2023-01-28T15:17:36;95342.38;;;-1.68;100.00
61408;BME280;47274;43.054;25.146;2023-01-28T15:20:06;95408.63;;;-1.34;100.00
61408;BME280;47274;43.054;25.146;2023-01-28T15:22:33;95421.31;;;-1.35;100.00